sensor_id;sensor_type;location;lat;lon;timestamp;pressure;altitude;pressure_sealevel;temperature;humidity
13705;BME280;6924;52.122;9.952;2023-04-06T00:02:26;100961.81;;;-0.35;78.54
13705;BME280;6924;52.122;9.952;2023-04-06T00:04:53;100959.03;;;-0.35;78.63
13705;BME280;6924;52.122;9.952;2023-04-06T00:07:19;100956.03;;;-0.34;78.48
13705;BME280;6924;52.122;9.952;2023-04-06T00:09:46;100959.03;;;-0.35;78.14
13705;BME280;6924;52.122;9.952;2023-04-06T00:12:12;100958.88;;;-0.40;78.75
13705;BME280;6924;52.122;9.952;2023-04-06T00:14:38;100949.69;;;-0.41;78.63
13705;BME280;6924;52.122;9.952;2023-04-06T00:17:05;100955.03;;;-0.39;78.65
13705;BME280;6924;52.122;9.952;2023-04-06T00:19:33;100952.97;;;-0.44;78.84
13705;BME280;6924;52.122;9.952;2023-04-06T00:21:59;100947.84;;;-0.47;78.69
13705;BME280;6924;52.122;9.952;2023-04-06T00:24:27;100945.69;;;-0.45;78.96
13705;BME280;6924;52.122;9.952;2023-04-06T00:26:53;100943.75;;;-0.45;79.19
13705;BME280;6924;52.122;9.952;2023-04-06T00:29:20;100941.44;;;-0.48;79.55
13705;BME280;6924;52.122;9.952;2023-04-06T00:31:46;100938.06;;;-0.50;79.67
13705;BME280;6924;52.122;9.952;2023-04-06T00:34:13;100931.03;;;-0.52;79.72
13705;BME280;6924;52.122;9.952;2023-04-06T00:36:41;100931.88;;;-0.52;79.59
13705;BME280;6924;52.122;9.952;2023-04-06T00:39:07;100929.72;;;-0.50;79.90
13705;BME280;6924;52.122;9.952;2023-04-06T00:41:34;100926.94;;;-0.50;79.70
13705;BME280;6924;52.122;9.952;2023-04-06T00:44:00;100928.88;;;-0.50;79.89
13705;BME280;6924;52.122;9.952;2023-04-06T00:46:27;100936.41;;;-0.57;79.70
13705;BME280;6924;52.122;9.952;2023-04-06T00:48:54;100926.19;;;-0.57;79.53
13705;BME280;6924;52.122;9.952;2023-04-06T00:51:20;100923.09;;;-0.67;79.92
13705;BME280;6924;52.122;9.952;2023-04-06T00:53:48;100921.53;;;-0.63;79.79
13705;BME280;6924;52.122;9.952;2023-04-06T00:56:15;100919.81;;;-0.64;79.70
13705;BME280;6924;52.122;9.952;2023-04-06T00:58:41;100918.84;;;-0.70;79.74
13705;BME280;6924;52.122;9.952;2023-04-06T01:01:07;100914.91;;;-0.80;79.62
13705;BME280;6924;52.122;9.952;2023-04-06T01:03:34;100915.03;;;-0.75;80.15
13705;BME280;6924;52.122;9.952;2023-04-06T01:06:01;100912.81;;;-0.85;79.94
13705;BME280;6924;52.122;9.952;2023-04-06T01:08:27;100914.69;;;-0.79;80.71
13705;BME280;6924;52.122;9.952;2023-04-06T01:10:55;100908.94;;;-1.02;80.72
13705;BME280;6924;52.122;9.952;2023-04-06T01:13:21;100909.78;;;-1.02;80.97
13705;BME280;6924;52.122;9.952;2023-04-06T01:15:48;100907.09;;;-1.09;81.33
13705;BME280;6924;52.122;9.952;2023-04-06T01:18:15;100906.38;;;-1.04;81.56
13705;BME280;6924;52.122;9.952;2023-04-06T01:20:41;100897.63;;;-1.01;81.50
13705;BME280;6924;52.122;9.952;2023-04-06T01:23:09;100891.59;;;-0.98;81.15
13705;BME280;6924;52.122;9.952;2023-04-06T01:25:35;100894.50;;;-0.93;80.88
13705;BME280;6924;52.122;9.952;2023-04-06T01:28:02;100892.84;;;-0.94;80.77
13705;BME280;6924;52.122;9.952;2023-04-06T01:30:28;100888.97;;;-0.93;80.91
13705;BME280;6924;52.122;9.952;2023-04-06T01:32:55;100898.78;;;-0.90;80.88
13705;BME280;6924;52.122;9.952;2023-04-06T01:35:22;100894.50;;;-1.11;80.73
13705;BME280;6924;52.122;9.952;2023-04-06T01:37:48;100891.44;;;-1.03;81.05
13705;BME280;6924;52.122;9.952;2023-04-06T01:40:16;100890.97;;;-1.00;81.04
13705;BME280;6924;52.122;9.952;2023-04-06T01:42:42;100890.81;;;-1.05;80.46
13705;BME280;6924;52.122;9.952;2023-04-06T01:45:09;100890.44;;;-1.09;80.37
13705;BME280;6924;52.122;9.952;2023-04-06T01:47:36;100885.34;;;-1.12;80.89
13705;BME280;6924;52.122;9.952;2023-04-06T01:50:03;100887.09;;;-1.17;80.85
13705;BME280;6924;52.122;9.952;2023-04-06T01:52:31;100887.44;;;-1.07;80.40
13705;BME280;6924;52.122;9.952;2023-04-06T01:54:57;100892.84;;;-1.12;80.77
13705;BME280;6924;52.122;9.952;2023-04-06T01:57:25;100889.19;;;-1.13;80.43
13705;BME280;6924;52.122;9.952;2023-04-06T01:59:51;100883.88;;;-1.14;80.54
13705;BME280;6924;52.122;9.952;2023-04-06T02:02:18;100886.47;;;-1.19;80.61
13705;BME280;6924;52.122;9.952;2023-04-06T02:04:44;100889.84;;;-1.36;81.62
13705;BME280;6924;52.122;9.952;2023-04-06T02:07:11;100883.13;;;-1.47;81.70
13705;BME280;6924;52.122;9.952;2023-04-06T02:09:37;100881.31;;;-1.34;81.96
13705;BME280;6924;52.122;9.952;2023-04-06T02:12:04;100891.31;;;-1.33;81.58
13705;BME280;6924;52.122;9.952;2023-04-06T02:14:32;100890.78;;;-1.23;81.51
13705;BME280;6924;52.122;9.952;2023-04-06T02:16:59;100881.47;;;-1.29;81.81
13705;BME280;6924;52.122;9.952;2023-04-06T02:19:25;100886.00;;;-1.35;81.51
13705;BME280;6924;52.122;9.952;2023-04-06T02:21:52;100884.03;;;-1.28;81.38
13705;BME280;6924;52.122;9.952;2023-04-06T02:24:18;100889.69;;;-1.41;81.44
13705;BME280;6924;52.122;9.952;2023-04-06T02:26:44;100882.78;;;-1.32;81.48
13705;BME280;6924;52.122;9.952;2023-04-06T02:29:11;100880.97;;;-1.44;81.81
13705;BME280;6924;52.122;9.952;2023-04-06T02:31:38;100878.53;;;-1.34;81.46
13705;BME280;6924;52.122;9.952;2023-04-06T02:34:05;100881.31;;;-1.34;81.55
13705;BME280;6924;52.122;9.952;2023-04-06T02:36:32;100883.69;;;-1.38;81.58
13705;BME280;6924;52.122;9.952;2023-04-06T02:38:58;100877.91;;;-1.36;81.59
13705;BME280;6924;52.122;9.952;2023-04-06T02:41:25;100880.75;;;-1.43;81.31
13705;BME280;6924;52.122;9.952;2023-04-06T02:43:51;100870.56;;;-1.49;81.66
13705;BME280;6924;52.122;9.952;2023-04-06T02:46:18;100871.81;;;-1.45;81.51
13705;BME280;6924;52.122;9.952;2023-04-06T02:48:46;100876.84;;;-1.60;81.69
13705;BME280;6924;52.122;9.952;2023-04-06T02:51:12;100876.34;;;-1.76;82.67
13705;BME280;6924;52.122;9.952;2023-04-06T02:53:38;100882.47;;;-1.67;82.64
13705;BME280;6924;52.122;9.952;2023-04-06T02:56:05;100870.00;;;-1.58;82.35
13705;BME280;6924;52.122;9.952;2023-04-06T02:58:32;100873.47;;;-1.62;82.29
13705;BME280;6924;52.122;9.952;2023-04-06T03:00:58;100862.25;;;-1.49;81.76
13705;BME280;6924;52.122;9.952;2023-04-06T03:03:25;100866.00;;;-1.43;81.57
13705;BME280;6924;52.122;9.952;2023-04-06T03:05:52;100872.19;;;-1.41;81.99
13705;BME280;6924;52.122;9.952;2023-04-06T03:08:21;100862.09;;;-1.36;81.63
13705;BME280;6924;52.122;9.952;2023-04-06T03:10:47;100863.41;;;-1.38;81.42
13705;BME280;6924;52.122;9.952;2023-04-06T03:13:14;100857.63;;;-1.37;81.20
13705;BME280;6924;52.122;9.952;2023-04-06T03:15:40;100862.50;;;-1.32;81.28
13705;BME280;6924;52.122;9.952;2023-04-06T03:18:07;100864.03;;;-1.36;80.94
13705;BME280;6924;52.122;9.952;2023-04-06T03:20:33;100861.00;;;-1.53;81.13
13705;BME280;6924;52.122;9.952;2023-04-06T03:23:01;100858.84;;;-1.51;81.22
13705;BME280;6924;52.122;9.952;2023-04-06T03:25:27;100856.91;;;-1.51;81.08
13705;BME280;6924;52.122;9.952;2023-04-06T03:27:55;100862.38;;;-1.44;81.44
13705;BME280;6924;52.122;9.952;2023-04-06T03:30:21;100860.72;;;-1.45;81.11
13705;BME280;6924;52.122;9.952;2023-04-06T03:32:48;100864.31;;;-1.44;81.15
13705;BME280;6924;52.122;9.952;2023-04-06T03:35:14;100862.38;;;-1.44;80.93
13705;BME280;6924;52.122;9.952;2023-04-06T03:37:40;100859.69;;;-1.51;81.00
13705;BME280;6924;52.122;9.952;2023-04-06T03:40:09;100861.53;;;-1.44;81.24
13705;BME280;6924;52.122;9.952;2023-04-06T03:42:36;100863.13;;;-1.55;81.41
13705;BME280;6924;52.122;9.952;2023-04-06T03:45:03;100858.84;;;-1.51;80.99
13705;BME280;6924;52.122;9.952;2023-04-06T03:47:29;100857.31;;;-1.47;81.34
13705;BME280;6924;52.122;9.952;2023-04-06T03:49:56;100858.56;;;-1.43;81.50
13705;BME280;6924;52.122;9.952;2023-04-06T03:52:22;100859.63;;;-1.44;81.43
13705;BME280;6924;52.122;9.952;2023-04-06T03:54:49;100864.09;;;-1.43;81.48
13705;BME280;6924;52.122;9.952;2023-04-06T03:57:16;100860.72;;;-1.45;81.45
13705;BME280;6924;52.122;9.952;2023-04-06T03:59:43;100863.00;;;-1.42;81.57
13705;BME280;6924;52.122;9.952;2023-04-06T04:02:09;100856.91;;;-1.51;81.75
13705;BME280;6924;52.122;9.952;2023-04-06T04:04:35;100867.63;;;-1.54;81.64
13705;BME280;6924;52.122;9.952;2023-04-06T04:07:02;100862.66;;;-1.52;81.53
13705;BME280;6924;52.122;9.952;2023-04-06T04:09:28;100865.06;;;-1.56;81.49
13705;BME280;6924;52.122;9.952;2023-04-06T04:11:55;100868.69;;;-1.55;81.39
13705;BME280;6924;52.122;9.952;2023-04-06T04:14:22;100868.28;;;-1.59;81.52
13705;BME280;6924;52.122;9.952;2023-04-06T04:16:49;100868.06;;;-1.57;81.50
13705;BME280;6924;52.122;9.952;2023-04-06T04:19:15;100866.59;;;-1.60;81.50
13705;BME280;6924;52.122;9.952;2023-04-06T04:21:42;100872.16;;;-1.60;81.33
13705;BME280;6924;52.122;9.952;2023-04-06T04:24:10;100873.47;;;-1.62;81.64
13705;BME280;6924;52.122;9.952;2023-04-06T04:26:37;100874.75;;;-1.65;81.67
13705;BME280;6924;52.122;9.952;2023-04-06T04:29:04;100867.91;;;-1.62;81.83
13705;BME280;6924;52.122;9.952;2023-04-06T04:31:32;100875.09;;;-1.80;82.07
13705;BME280;6924;52.122;9.952;2023-04-06T04:33:59;100871.47;;;-1.80;81.82
13705;BME280;6924;52.122;9.952;2023-04-06T04:36:26;100872.94;;;-1.78;81.90
13705;BME280;6924;52.122;9.952;2023-04-06T04:38:53;100878.22;;;-1.70;81.83
13705;BME280;6924;52.122;9.952;2023-04-06T04:41:19;100868.59;;;-1.67;81.66
13705;BME280;6924;52.122;9.952;2023-04-06T04:43:46;100866.66;;;-1.67;82.00
13705;BME280;6924;52.122;9.952;2023-04-06T04:46:12;100868.25;;;-1.77;81.56
13705;BME280;6924;52.122;9.952;2023-04-06T04:48:40;100867.97;;;-1.69;81.75
13705;BME280;6924;52.122;9.952;2023-04-06T04:51:06;100867.28;;;-1.64;81.64
13705;BME280;6924;52.122;9.952;2023-04-06T04:53:32;100870.91;;;-1.64;81.45
13705;BME280;6924;52.122;9.952;2023-04-06T04:55:59;100873.00;;;-1.59;81.58
13705;BME280;6924;52.122;9.952;2023-04-06T04:58:25;100873.84;;;-1.59;81.63
13705;BME280;6924;52.122;9.952;2023-04-06T05:00:52;100879.78;;;-1.55;81.90
13705;BME280;6924;52.122;9.952;2023-04-06T05:03:21;100874.25;;;-1.55;81.67
13705;BME280;6924;52.122;9.952;2023-04-06T05:05:49;100877.41;;;-1.52;81.69
13705;BME280;6924;52.122;9.952;2023-04-06T05:08:16;100867.69;;;-1.61;81.88
13705;BME280;6924;52.122;9.952;2023-04-06T05:10:42;100871.69;;;-1.57;81.80
13705;BME280;6924;52.122;9.952;2023-04-06T05:13:09;100869.53;;;-1.55;81.76
13705;BME280;6924;52.122;9.952;2023-04-06T05:15:36;100875.47;;;-1.51;81.83
13705;BME280;6924;52.122;9.952;2023-04-06T05:18:03;100870.94;;;-1.46;81.79
13705;BME280;6924;52.122;9.952;2023-04-06T05:20:29;100872.81;;;-1.39;81.45
13705;BME280;6924;52.122;9.952;2023-04-06T05:22:57;100875.81;;;-1.41;81.67
13705;BME280;6924;52.122;9.952;2023-04-06T05:25:24;100879.81;;;-1.37;81.59
13705;BME280;6924;52.122;9.952;2023-04-06T05:27:50;100876.13;;;-1.31;82.13
13705;BME280;6924;52.122;9.952;2023-04-06T05:30:17;100875.22;;;-1.25;82.03
13705;BME280;6924;52.122;9.952;2023-04-06T05:32:43;100871.13;;;-1.22;81.91
13705;BME280;6924;52.122;9.952;2023-04-06T05:35:10;100871.25;;;-1.10;82.47
13705;BME280;6924;52.122;9.952;2023-04-06T05:37:38;100872.72;;;-1.08;82.37
13705;BME280;6924;52.122;9.952;2023-04-06T05:40:07;100868.97;;;-1.01;82.22
13705;BME280;6924;52.122;9.952;2023-04-06T05:42:36;100869.78;;;-0.94;83.24
13705;BME280;6924;52.122;9.952;2023-04-06T05:45:03;100870.69;;;-0.82;83.36
13705;BME280;6924;52.122;9.952;2023-04-06T05:47:30;100869.75;;;-0.76;83.12
13705;BME280;6924;52.122;9.952;2023-04-06T05:49:56;100870.91;;;-0.65;82.89
13705;BME280;6924;52.122;9.952;2023-04-06T05:52:23;100871.22;;;-0.55;82.42
13705;BME280;6924;52.122;9.952;2023-04-06T05:54:49;100870.50;;;-0.50;82.18
13705;BME280;6924;52.122;9.952;2023-04-06T05:57:17;100875.88;;;-0.37;81.25
13705;BME280;6924;52.122;9.952;2023-04-06T05:59:44;100873.47;;;-0.33;80.85
13705;BME280;6924;52.122;9.952;2023-04-06T06:02:10;100865.19;;;-0.22;80.18
13705;BME280;6924;52.122;9.952;2023-04-06T06:04:36;100859.28;;;-0.13;79.40
13705;BME280;6924;52.122;9.952;2023-04-06T06:07:03;100856.91;;;0.02;79.59
13705;BME280;6924;52.122;9.952;2023-04-06T06:09:30;100859.59;;;0.09;79.43
13705;BME280;6924;52.122;9.952;2023-04-06T06:11:57;100858.91;;;0.13;78.44
13705;BME280;6924;52.122;9.952;2023-04-06T06:14:24;100859.28;;;0.40;78.75
13705;BME280;6924;52.122;9.952;2023-04-06T06:16:53;100855.31;;;0.60;76.46
13705;BME280;6924;52.122;9.952;2023-04-06T06:19:19;100855.19;;;0.67;75.77
13705;BME280;6924;52.122;9.952;2023-04-06T06:21:46;100860.50;;;0.92;75.23
13705;BME280;6924;52.122;9.952;2023-04-06T06:24:12;100845.56;;;1.10;74.27
13705;BME280;6924;52.122;9.952;2023-04-06T06:26:39;100849.78;;;1.24;75.61
13705;BME280;6924;52.122;9.952;2023-04-06T06:29:06;100854.34;;;1.42;74.46
13705;BME280;6924;52.122;9.952;2023-04-06T06:31:33;100857.38;;;1.40;72.92
13705;BME280;6924;52.122;9.952;2023-04-06T06:34:00;100859.84;;;1.65;73.60
13705;BME280;6924;52.122;9.952;2023-04-06T06:36:27;100856.75;;;1.79;72.83
13705;BME280;6924;52.122;9.952;2023-04-06T06:38:53;100847.06;;;1.98;72.83
13705;BME280;6924;52.122;9.952;2023-04-06T06:41:20;100854.09;;;2.18;72.53
13705;BME280;6924;52.122;9.952;2023-04-06T06:43:46;100852.84;;;2.42;69.94
13705;BME280;6924;52.122;9.952;2023-04-06T06:46:12;100848.44;;;2.63;70.63
13705;BME280;6924;52.122;9.952;2023-04-06T06:48:40;100855.78;;;2.86;68.05
13705;BME280;6924;52.122;9.952;2023-04-06T06:51:07;100855.56;;;3.10;66.00
13705;BME280;6924;52.122;9.952;2023-04-06T06:53:34;100848.69;;;3.18;68.91
13705;BME280;6924;52.122;9.952;2023-04-06T06:56:01;100851.16;;;3.36;67.02
13705;BME280;6924;52.122;9.952;2023-04-06T06:58:27;100848.50;;;3.46;63.64
13705;BME280;6924;52.122;9.952;2023-04-06T07:00:55;100843.41;;;3.65;60.83
13705;BME280;6924;52.122;9.952;2023-04-06T07:03:22;100851.09;;;3.75;58.98
13705;BME280;6924;52.122;9.952;2023-04-06T07:05:50;100840.91;;;3.91;58.10
13705;BME280;6924;52.122;9.952;2023-04-06T07:08:19;100837.91;;;4.03;59.02
13705;BME280;6924;52.122;9.952;2023-04-06T07:10:45;100840.03;;;4.18;58.29
13705;BME280;6924;52.122;9.952;2023-04-06T07:13:12;100838.00;;;4.40;59.29
13705;BME280;6924;52.122;9.952;2023-04-06T07:15:43;100831.44;;;4.62;58.26
13705;BME280;6924;52.122;9.952;2023-04-06T07:18:09;100832.63;;;4.71;56.54
13705;BME280;6924;52.122;9.952;2023-04-06T07:20:36;100832.72;;;4.86;57.10
13705;BME280;6924;52.122;9.952;2023-04-06T07:23:04;100838.44;;;5.02;56.50
13705;BME280;6924;52.122;9.952;2023-04-06T07:25:30;100836.28;;;5.14;57.01
13705;BME280;6924;52.122;9.952;2023-04-06T07:27:56;100843.31;;;5.27;55.79
13705;BME280;6924;52.122;9.952;2023-04-06T07:30:23;100839.53;;;5.53;53.08
13705;BME280;6924;52.122;9.952;2023-04-06T07:32:51;100833.69;;;5.70;52.53
13705;BME280;6924;52.122;9.952;2023-04-06T07:35:17;100835.44;;;5.87;53.13
13705;BME280;6924;52.122;9.952;2023-04-06T07:37:44;100838.31;;;6.02;51.32
13705;BME280;6924;52.122;9.952;2023-04-06T07:40:12;100839.72;;;6.15;48.68
13705;BME280;6924;52.122;9.952;2023-04-06T07:42:38;100834.66;;;6.12;49.50
13705;BME280;6924;52.122;9.952;2023-04-06T07:45:06;100845.06;;;6.11;50.99
13705;BME280;6924;52.122;9.952;2023-04-06T07:47:32;100834.97;;;6.20;50.66
13705;BME280;6924;52.122;9.952;2023-04-06T07:49:59;100835.53;;;6.33;50.26
13705;BME280;6924;52.122;9.952;2023-04-06T07:52:25;100832.16;;;6.41;51.19
13705;BME280;6924;52.122;9.952;2023-04-06T07:54:52;100837.78;;;6.61;49.57
13705;BME280;6924;52.122;9.952;2023-04-06T07:57:19;100835.53;;;6.69;49.39
13705;BME280;6924;52.122;9.952;2023-04-06T07:59:46;100826.53;;;6.72;48.10
13705;BME280;6924;52.122;9.952;2023-04-06T08:02:12;100830.44;;;6.81;48.50
13705;BME280;6924;52.122;9.952;2023-04-06T08:04:39;100821.16;;;6.96;49.72
13705;BME280;6924;52.122;9.952;2023-04-06T08:07:05;100828.72;;;7.00;48.38
13705;BME280;6924;52.122;9.952;2023-04-06T08:09:31;100821.69;;;7.03;48.02
13705;BME280;6924;52.122;9.952;2023-04-06T08:11:58;100833.19;;;7.17;49.42
13705;BME280;6924;52.122;9.952;2023-04-06T08:14:26;100825.25;;;7.29;50.53
13705;BME280;6924;52.122;9.952;2023-04-06T08:16:52;100818.72;;;7.54;46.64
13705;BME280;6924;52.122;9.952;2023-04-06T08:19:19;100825.16;;;7.60;46.62
13705;BME280;6924;52.122;9.952;2023-04-06T08:21:45;100827.00;;;7.85;46.22
13705;BME280;6924;52.122;9.952;2023-04-06T08:24:12;100817.00;;;8.08;46.62
13705;BME280;6924;52.122;9.952;2023-04-06T08:26:38;100814.88;;;8.29;47.03
13705;BME280;6924;52.122;9.952;2023-04-06T08:29:05;100813.91;;;8.49;45.08
13705;BME280;6924;52.122;9.952;2023-04-06T08:31:34;100817.78;;;8.53;44.61
13705;BME280;6924;52.122;9.952;2023-04-06T08:34:00;100813.66;;;8.75;44.08
13705;BME280;6924;52.122;9.952;2023-04-06T08:36:27;100815.78;;;8.88;44.84
13705;BME280;6924;52.122;9.952;2023-04-06T08:38:53;100808.34;;;8.97;43.27
13705;BME280;6924;52.122;9.952;2023-04-06T08:41:20;100803.69;;;9.12;42.90
13705;BME280;6924;52.122;9.952;2023-04-06T08:43:47;100811.69;;;9.28;44.03
13705;BME280;6924;52.122;9.952;2023-04-06T08:46:15;100808.34;;;9.45;42.63
13705;BME280;6924;52.122;9.952;2023-04-06T08:48:43;100794.91;;;9.61;41.93
13705;BME280;6924;52.122;9.952;2023-04-06T08:51:10;100801.09;;;9.82;43.10
13705;BME280;6924;52.122;9.952;2023-04-06T08:53:37;100796.13;;;9.93;42.91
13705;BME280;6924;52.122;9.952;2023-04-06T08:56:04;100804.31;;;9.95;41.20
13705;BME280;6924;52.122;9.952;2023-04-06T08:58:34;100799.47;;;10.14;41.56
13705;BME280;6924;52.122;9.952;2023-04-06T09:01:06;100795.53;;;10.15;40.73
13705;BME280;6924;52.122;9.952;2023-04-06T09:03:36;100789.91;;;10.34;41.12
13705;BME280;6924;52.122;9.952;2023-04-06T09:06:05;100800.41;;;10.47;41.65
13705;BME280;6924;52.122;9.952;2023-04-06T09:08:32;100793.19;;;10.55;40.26
13705;BME280;6924;52.122;9.952;2023-04-06T09:11:00;100790.22;;;10.65;41.04
13705;BME280;6924;52.122;9.952;2023-04-06T09:13:26;100787.72;;;10.78;41.39
13705;BME280;6924;52.122;9.952;2023-04-06T09:16:00;100791.50;;;10.87;41.17
13705;BME280;6924;52.122;9.952;2023-04-06T09:18:30;100798.66;;;10.98;40.03
13705;BME280;6924;52.122;9.952;2023-04-06T09:20:58;100799.19;;;11.14;40.74
13705;BME280;6924;52.122;9.952;2023-04-06T09:23:26;100786.22;;;11.27;40.49
13705;BME280;6924;52.122;9.952;2023-04-06T09:26:04;100794.59;;;11.46;39.78
13705;BME280;6924;52.122;9.952;2023-04-06T09:28:41;100791.75;;;11.32;40.89
13705;BME280;6924;52.122;9.952;2023-04-06T09:31:07;100793.72;;;11.17;41.55
13705;BME280;6924;52.122;9.952;2023-04-06T09:33:37;100788.94;;;11.32;41.50
13705;BME280;6924;52.122;9.952;2023-04-06T09:36:04;100798.69;;;11.26;40.82
13705;BME280;6924;52.122;9.952;2023-04-06T09:38:32;100787.25;;;11.31;41.96
13705;BME280;6924;52.122;9.952;2023-04-06T09:40:58;100780.66;;;11.35;39.80
13705;BME280;6924;52.122;9.952;2023-04-06T09:43:25;100782.22;;;11.55;38.75
13705;BME280;6924;52.122;9.952;2023-04-06T09:45:52;100787.84;;;11.69;37.94
13705;BME280;6924;52.122;9.952;2023-04-06T09:48:20;100789.63;;;11.79;38.09
13705;BME280;6924;52.122;9.952;2023-04-06T09:50:47;100792.78;;;11.91;37.90
13705;BME280;6924;52.122;9.952;2023-04-06T09:53:15;100789.59;;;12.07;37.49
13705;BME280;6924;52.122;9.952;2023-04-06T09:55:45;100790.00;;;12.36;36.27
13705;BME280;6924;52.122;9.952;2023-04-06T09:58:13;100781.72;;;12.71;36.94
13705;BME280;6924;52.122;9.952;2023-04-06T10:00:47;100784.22;;;12.95;36.40
13705;BME280;6924;52.122;9.952;2023-04-06T10:03:21;100770.44;;;13.11;35.56
13705;BME280;6924;52.122;9.952;2023-04-06T10:05:55;100770.72;;;13.32;36.26
13705;BME280;6924;52.122;9.952;2023-04-06T10:08:24;100771.41;;;13.38;34.99
13705;BME280;6924;52.122;9.952;2023-04-06T10:10:55;100761.53;;;13.35;34.85
13705;BME280;6924;52.122;9.952;2023-04-06T10:13:23;100765.78;;;13.55;33.57
13705;BME280;6924;52.122;9.952;2023-04-06T10:15:50;100763.75;;;13.47;33.95
13705;BME280;6924;52.122;9.952;2023-04-06T10:18:17;100768.63;;;13.55;35.06
13705;BME280;6924;52.122;9.952;2023-04-06T10:20:50;100761.00;;;13.91;33.57
13705;BME280;6924;52.122;9.952;2023-04-06T10:23:19;100763.69;;;14.04;34.10
13705;BME280;6924;52.122;9.952;2023-04-06T10:25:55;100763.53;;;14.27;33.55
13705;BME280;6924;52.122;9.952;2023-04-06T10:28:22;100761.00;;;14.34;34.30
13705;BME280;6924;52.122;9.952;2023-04-06T10:30:56;100746.25;;;14.50;34.28
13705;BME280;6924;52.122;9.952;2023-04-06T10:33:23;100756.13;;;14.78;33.33
13705;BME280;6924;52.122;9.952;2023-04-06T10:35:49;100754.91;;;14.88;33.00
13705;BME280;6924;52.122;9.952;2023-04-06T10:38:16;100756.97;;;14.61;33.46
13705;BME280;6924;52.122;9.952;2023-04-06T10:40:47;100766.69;;;14.52;33.56
13705;BME280;6924;52.122;9.952;2023-04-06T10:43:19;100756.50;;;14.42;33.64
13705;BME280;6924;52.122;9.952;2023-04-06T10:45:54;100754.59;;;14.81;33.81
13705;BME280;6924;52.122;9.952;2023-04-06T10:48:20;100751.78;;;14.55;33.05
13705;BME280;6924;52.122;9.952;2023-04-06T10:50:48;100753.66;;;14.24;33.43
13705;BME280;6924;52.122;9.952;2023-04-06T10:53:21;100763.34;;;14.32;33.73
13705;BME280;6924;52.122;9.952;2023-04-06T10:55:49;100754.13;;;14.53;33.19
13705;BME280;6924;52.122;9.952;2023-04-06T10:58:17;100747.94;;;14.59;32.98
13705;BME280;6924;52.122;9.952;2023-04-06T11:00:44;100745.78;;;14.56;32.79
13705;BME280;6924;52.122;9.952;2023-04-06T11:03:11;100748.22;;;14.93;31.69
13705;BME280;6924;52.122;9.952;2023-04-06T11:05:37;100741.88;;;14.78;32.61
13705;BME280;6924;52.122;9.952;2023-04-06T11:08:04;100744.25;;;14.67;32.09
13705;BME280;6924;52.122;9.952;2023-04-06T11:10:30;100731.03;;;14.45;33.10
13705;BME280;6924;52.122;9.952;2023-04-06T11:12:57;100735.06;;;14.44;32.84
13705;BME280;6924;52.122;9.952;2023-04-06T11:15:24;100734.88;;;14.67;33.93
13705;BME280;6924;52.122;9.952;2023-04-06T11:17:51;100728.47;;;14.79;31.88
13705;BME280;6924;52.122;9.952;2023-04-06T11:20:17;100732.47;;;14.86;33.24
13705;BME280;6924;52.122;9.952;2023-04-06T11:22:49;100716.56;;;14.85;32.45
13705;BME280;6924;52.122;9.952;2023-04-06T11:25:16;100722.44;;;14.80;33.10
13705;BME280;6924;52.122;9.952;2023-04-06T11:27:43;100725.44;;;14.93;34.20
13705;BME280;6924;52.122;9.952;2023-04-06T11:30:11;100721.28;;;14.73;33.04
13705;BME280;6924;52.122;9.952;2023-04-06T11:32:41;100731.47;;;14.91;32.99
13705;BME280;6924;52.122;9.952;2023-04-06T11:35:11;100717.44;;;14.77;32.13
13705;BME280;6924;52.122;9.952;2023-04-06T11:37:38;100723.66;;;14.53;31.85
13705;BME280;6924;52.122;9.952;2023-04-06T11:40:08;100718.34;;;14.17;34.83
13705;BME280;6924;52.122;9.952;2023-04-06T11:42:34;100726.22;;;14.20;33.81
13705;BME280;6924;52.122;9.952;2023-04-06T11:45:01;100711.47;;;14.35;33.14
13705;BME280;6924;52.122;9.952;2023-04-06T11:47:28;100716.78;;;14.54;34.39
13705;BME280;6924;52.122;9.952;2023-04-06T11:50:05;100721.97;;;14.52;33.23
13705;BME280;6924;52.122;9.952;2023-04-06T11:52:32;100714.44;;;14.74;33.38
13705;BME280;6924;52.122;9.952;2023-04-06T11:54:58;100702.44;;;14.98;31.61
13705;BME280;6924;52.122;9.952;2023-04-06T11:57:25;100697.66;;;15.19;31.88
13705;BME280;6924;52.122;9.952;2023-04-06T11:59:52;100702.28;;;15.33;31.21
13705;BME280;6924;52.122;9.952;2023-04-06T12:02:18;100698.97;;;14.83;34.06
13705;BME280;6924;52.122;9.952;2023-04-06T12:04:45;100698.38;;;14.60;32.25
13705;BME280;6924;52.122;9.952;2023-04-06T12:07:13;100695.22;;;14.62;33.58
13705;BME280;6924;52.122;9.952;2023-04-06T12:09:39;100686.97;;;14.69;34.28
13705;BME280;6924;52.122;9.952;2023-04-06T12:12:06;100692.72;;;14.99;33.90
13705;BME280;6924;52.122;9.952;2023-04-06T12:14:32;100687.44;;;15.18;33.48
13705;BME280;6924;52.122;9.952;2023-04-06T12:16:59;100682.47;;;15.36;34.24
13705;BME280;6924;52.122;9.952;2023-04-06T12:19:25;100683.81;;;14.71;34.47
13705;BME280;6924;52.122;9.952;2023-04-06T12:21:52;100681.84;;;14.36;35.22
13705;BME280;6924;52.122;9.952;2023-04-06T12:24:20;100687.19;;;14.38;34.98
13705;BME280;6924;52.122;9.952;2023-04-06T12:26:47;100690.22;;;14.15;35.45
13705;BME280;6924;52.122;9.952;2023-04-06T12:29:13;100684.91;;;14.05;34.26
13705;BME280;6924;52.122;9.952;2023-04-06T12:31:40;100680.84;;;14.15;34.65
13705;BME280;6924;52.122;9.952;2023-04-06T12:34:08;100677.38;;;14.09;35.44
13705;BME280;6924;52.122;9.952;2023-04-06T12:36:34;100675.84;;;14.03;33.57
13705;BME280;6924;52.122;9.952;2023-04-06T12:39:01;100675.03;;;13.76;35.51
13705;BME280;6924;52.122;9.952;2023-04-06T12:41:29;100672.69;;;13.61;36.28
13705;BME280;6924;52.122;9.952;2023-04-06T12:43:56;100667.84;;;13.70;35.10
13705;BME280;6924;52.122;9.952;2023-04-06T12:46:24;100674.50;;;13.48;34.40
13705;BME280;6924;52.122;9.952;2023-04-06T12:48:51;100670.81;;;13.39;34.11
13705;BME280;6924;52.122;9.952;2023-04-06T12:51:18;100661.28;;;13.43;35.54
13705;BME280;6924;52.122;9.952;2023-04-06T12:53:45;100665.28;;;13.51;34.68
13705;BME280;6924;52.122;9.952;2023-04-06T12:56:12;100659.63;;;13.69;33.43
13705;BME280;6924;52.122;9.952;2023-04-06T12:58:41;100657.28;;;13.53;34.65
13705;BME280;6924;52.122;9.952;2023-04-06T13:01:07;100658.47;;;13.52;34.76
13705;BME280;6924;52.122;9.952;2023-04-06T13:03:35;100650.59;;;13.40;34.02